Time;durP1;ratioP1;P1;durP2;ratioP2;P2;SDS_P1;SDS_P2;PMS_P1;PMS_P2;Temp;Humidity;BMP_temperature;BMP_pressure;BME280_temperature;BME280_humidity;BME280_pressure;Samples;Min_cycle;Max_cycle;Signal;HPM_P1;HPM_P2
2023/06/28 00:00:13;;;;;;;7.40;3.90;;;;;;;;;;613332;23;972;-75
2023/06/28 00:00:28;;;;;;;6.85;4.07;;;;;;;;;;617354;23;913;-74
2023/06/28 00:00:44;;;;;;;6.15;3.78;;;;;;;;;;616311;23;1265;-74
2023/06/28 00:01:00;;;;;;;8.23;4.67;;;;;;;;;;619582;23;872;-74
2023/06/28 00:01:16;;;;;;;10.00;6.10;;;;;;;;;;610518;23;1331;-75
2023/06/28 00:01:36;;;;;;;12.70;7.60;;;;;;;;;;620457;23;1231;-74
2023/06/28 00:01:52;;;;;;;11.63;7.18;;;;;;;;;;622963;23;1291;-75
2023/06/28 00:02:12;;;;;;;10.70;7.10;;;;;;;;;;616738;23;1353;-75
2023/06/28 00:02:27;;;;;;;11.23;7.03;;;;;;;;;;619256;23;1537;-75
2023/06/28 00:02:43;;;;;;;11.07;6.63;;;;;;;;;;622637;23;1467;-73
2023/06/28 00:03:00;;;;;;;10.82;6.55;;;;;;;;;;619937;23;1252;-75
2023/06/28 00:03:16;;;;;;;10.40;6.32;;;;;;;;;;612481;23;903;-75
2023/06/28 00:03:32;;;;;;;10.25;6.00;;;;;;;;;;623359;23;892;-74
2023/06/28 00:03:49;;;;;;;9.85;5.32;;;;;;;;;;619996;23;1311;-74
2023/06/28 00:04:05;;;;;;;8.95;5.00;;;;;;;;;;616783;23;1913;-75
2023/06/28 00:04:21;;;;;;;8.25;5.13;;;;;;;;;;614993;23;1245;-74
2023/06/28 00:04:36;;;;;;;9.05;5.20;;;;;;;;;;619142;23;1295;-74
2023/06/28 00:04:52;;;;;;;8.67;5.10;;;;;;;;;;617592;23;1332;-75
2023/06/28 00:05:12;;;;;;;9.27;5.40;;;;;;;;;;613011;23;1446;-75
2023/06/28 00:05:28;;;;;;;9.48;5.50;;;;;;;;;;613970;23;1471;-74
2023/06/28 00:05:44;;;;;;;8.88;5.30;;;;;;;;;;617130;23;1174;-74
2023/06/28 00:06:00;;;;;;;9.45;5.50;;;;;;;;;;618596;23;984;-75
2023/06/28 00:06:22;;;;;;;12.25;5.60;;;;;;;;;;612510;23;871;-74
2023/06/28 00:06:38;;;;;;;10.32;5.00;;;;;;;;;;622872;23;1378;-75
2023/06/28 00:06:54;;;;;;;7.97;4.75;;;;;;;;;;625787;23;1133;-74
2023/06/28 00:07:11;;;;;;;8.63;4.80;;;;;;;;;;618397;23;1281;-75
2023/06/28 00:07:27;;;;;;;8.38;4.30;;;;;;;;;;620080;23;1244;-75
2023/06/28 00:07:43;;;;;;;6.90;3.72;;;;;;;;;;619340;23;1410;-75
2023/06/28 00:07:58;;;;;;;5.87;3.10;;;;;;;;;;619268;23;1097;-75
2023/06/28 00:08:14;;;;;;;5.55;2.90;;;;;;;;;;611860;23;1391;-74
2023/06/28 00:08:30;;;;;;;5.05;2.80;;;;;;;;;;618146;23;852;-75
2023/06/28 00:08:47;;;;;;;4.43;2.63;;;;;;;;;;616857;23;1264;-74
2023/06/28 00:09:14;;;;;;;5.00;2.50;;;;;;;;;;618412;23;1002;-75
2023/06/28 00:09:31;;;;;;;4.88;2.00;;;;;;;;;;617764;23;1300;-75
2023/06/28 00:09:47;;;;;;;4.80;2.30;;;;;;;;;;616345;23;1304;-74
2023/06/28 00:10:04;;;;;;;4.50;2.30;;;;;;;;;;619747;23;1363;-77
2023/06/28 00:10:19;;;;;;;4.85;2.10;;;;;;;;;;618074;23;938;-74
2023/06/28 00:10:35;;;;;;;4.93;2.20;;;;;;;;;;619024;23;1157;-74
2023/06/28 00:10:51;;;;;;;4.38;2.17;;;;;;;;;;616542;23;1316;-74
2023/06/28 00:11:08;;;;;;;4.13;2.00;;;;;;;;;;614376;23;1175;-75
2023/06/28 00:11:27;;;;;;;4.97;2.03;;;;;;;;;;615353;23;1374;-74
2023/06/28 00:11:44;;;;;;;4.75;2.00;;;;;;;;;;616942;23;1262;-75
2023/06/28 00:12:12;;;;;;;3.30;2.00;;;;;;;;;;617510;23;1307;-74
2023/06/28 00:12:33;;;;;;;3.70;1.80;;;;;;;;;;619474;23;1181;-74
2023/06/28 00:12:49;;;;;;;4.00;1.70;;;;;;;;;;618806;23;1084;-74
2023/06/28 00:13:08;;;;;;;4.60;1.80;;;;;;;;;;616007;23;1262;-74
2023/06/28 00:13:27;;;;;;;5.38;1.80;;;;;;;;;;617566;23;1264;-74
2023/06/28 00:13:43;;;;;;;4.05;1.90;;;;;;;;;;614191;23;1320;-74
2023/06/28 00:13:59;;;;;;;3.33;1.58;;;;;;;;;;617376;23;1251;-75
2023/06/28 00:14:15;;;;;;;3.70;1.60;;;;;;;;;;615153;23;820;-74
2023/06/28 00:14:31;;;;;;;3.92;1.73;;;;;;;;;;620269;23;777;-74
2023/06/28 00:14:46;;;;;;;3.85;1.67;;;;;;;;;;623682;23;1291;-74
2023/06/28 00:15:03;;;;;;;3.72;1.60;;;;;;;;;;623241;23;1276;-73
2023/06/28 00:15:19;;;;;;;2.58;1.50;;;;;;;;;;615860;23;1111;-73
2023/06/28 00:15:35;;;;;;;2.70;1.50;;;;;;;;;;623748;23;1378;-73
2023/06/28 00:15:51;;;;;;;3.00;1.55;;;;;;;;;;620357;23;1282;-73
2023/06/28 00:16:25;;;;;;;3.50;1.63;;;;;;;;;;615663;23;1260;-74
2023/06/28 00:16:41;;;;;;;4.03;1.60;;;;;;;;;;616893;23;1263;-73
2023/06/28 00:16:57;;;;;;;4.03;1.63;;;;;;;;;;620770;23;1644;-74
2023/06/28 00:17:13;;;;;;;4.18;1.60;;;;;;;;;;615697;23;1292;-74
2023/06/28 00:17:32;;;;;;;3.53;1.55;;;;;;;;;;618134;23;1307;-74
2023/06/28 00:17:48;;;;;;;3.40;1.73;;;;;;;;;;617517;23;1494;-73
2023/06/28 00:18:15;;;;;;;3.15;1.67;;;;;;;;;;616023;23;1464;-75
2023/06/28 00:18:33;;;;;;;3.47;1.60;;;;;;;;;;619687;23;1631;-74
2023/06/28 00:18:48;;;;;;;3.53;1.52;;;;;;;;;;620093;23;1515;-73
2023/06/28 00:19:10;;;;;;;3.50;1.50;;;;;;;;;;619297;23;1016;-74
2023/06/28 00:19:26;;;;;;;4.18;1.60;;;;;;;;;;618156;23;1186;-74
2023/06/28 00:19:47;;;;;;;3.42;1.60;;;;;;;;;;620136;23;1460;-73
2023/06/28 00:20:07;;;;;;;2.75;1.50;;;;;;;;;;619540;23;1206;-74
2023/06/28 00:20:23;;;;;;;2.88;1.38;;;;;;;;;;615792;23;1183;-74
2023/06/28 00:20:43;;;;;;;3.55;1.50;;;;;;;;;;621150;23;816;-73
2023/06/28 00:20:58;;;;;;;3.33;1.50;;;;;;;;;;622547;23;1423;-74
2023/06/28 00:21:14;;;;;;;3.80;1.67;;;;;;;;;;613961;23;1299;-75
2023/06/28 00:21:30;;;;;;;3.42;1.63;;;;;;;;;;617242;23;1443;-74
2023/06/28 00:21:46;;;;;;;3.23;1.60;;;;;;;;;;616747;23;1201;-74
2023/06/28 00:22:07;;;;;;;3.70;1.63;;;;;;;;;;617368;23;1344;-73
2023/06/28 00:22:30;;;;;;;3.53;1.80;;;;;;;;;;617527;23;1336;-74
2023/06/28 00:22:46;;;;;;;3.33;1.60;;;;;;;;;;619970;23;867;-74
2023/06/28 00:23:03;;;;;;;4.00;1.55;;;;;;;;;;620296;23;827;-73
2023/06/28 00:23:19;;;;;;;5.82;1.60;;;;;;;;;;615115;23;1129;-73
2023/06/28 00:23:35;;;;;;;4.80;1.60;;;;;;;;;;619347;23;827;-74
2023/06/28 00:23:51;;;;;;;3.45;1.50;;;;;;;;;;623263;23;1276;-74
2023/06/28 00:24:16;;;;;;;4.80;1.60;;;;;;;;;;623311;23;1974;-74
2023/06/28 00:24:32;;;;;;;3.60;1.67;;;;;;;;;;625941;23;1248;-74
2023/06/28 00:24:48;;;;;;;3.40;1.60;;;;;;;;;;625513;23;1295;-74
2023/06/28 00:25:04;;;;;;;4.70;1.85;;;;;;;;;;625741;23;906;-73
2023/06/28 00:25:20;;;;;;;4.80;1.92;;;;;;;;;;625548;23;1116;-75
2023/06/28 00:25:36;;;;;;;3.47;1.60;;;;;;;;;;625902;23;1006;-74
2023/06/28 00:26:12;;;;;;;3.50;1.40;;;;;;;;;;628796;23;1019;-73
2023/06/28 00:26:28;;;;;;;4.95;1.67;;;;;;;;;;625682;23;1519;-74
2023/06/28 00:26:43;;;;;;;3.20;1.58;;;;;;;;;;622345;23;1337;-73
2023/06/28 00:26:59;;;;;;;4.22;1.60;;;;;;;;;;623145;23;862;-74
2023/06/28 00:27:15;;;;;;;4.22;1.60;;;;;;;;;;616884;23;1507;-74
2023/06/28 00:27:31;;;;;;;3.40;1.77;;;;;;;;;;619927;23;1123;-74
2023/06/28 00:27:47;;;;;;;3.55;1.90;;;;;;;;;;620379;23;974;-74
2023/06/28 00:28:04;;;;;;;4.18;1.85;;;;;;;;;;616584;23;1300;-74
2023/06/28 00:28:20;;;;;;;3.88;1.63;;;;;;;;;;609359;23;1283;-73
2023/06/28 00:28:35;;;;;;;3.03;1.60;;;;;;;;;;614738;23;1257;-74
2023/06/28 00:28:51;;;;;;;4.67;1.70;;;;;;;;;;616677;23;1375;-74
2023/06/28 00:29:10;;;;;;;4.47;1.75;;;;;;;;;;617912;23;1211;-73
2023/06/28 00:29:26;;;;;;;3.42;1.60;;;;;;;;;;616129;23;1047;-74
2023/06/28 00:29:41;;;;;;;3.35;1.45;;;;;;;;;;619783;23;1154;-74
2023/06/28 00:29:57;;;;;;;3.20;1.57;;;;;;;;;;621965;23;963;-74
2023/06/28 00:30:17;;;;;;;3.10;1.60;;;;;;;;;;618559;23;871;-74
2023/06/28 00:30:33;;;;;;;3.45;1.52;;;;;;;;;;622753;23;1494;-74
2023/06/28 00:30:48;;;;;;;4.38;1.70;;;;;;;;;;622843;23;1181;-74
2023/06/28 00:31:15;;;;;;;4.40;1.70;;;;;;;;;;623816;23;1225;-75
2023/06/28 00:31:31;;;;;;;3.72;1.50;;;;;;;;;;625711;23;1394;-75
2023/06/28 00:31:46;;;;;;;3.55;1.40;;;;;;;;;;625587;23;839;-74
2023/06/28 00:32:02;;;;;;;3.33;1.50;;;;;;;;;;625440;23;1224;-74
2023/06/28 00:32:18;;;;;;;3.90;1.70;;;;;;;;;;619755;23;1228;-74
2023/06/28 00:32:33;;;;;;;3.35;1.60;;;;;;;;;;622428;23;1359;-73
2023/06/28 00:32:55;;;;;;;3.70;1.40;;;;;;;;;;619078;23;1458;-75
2023/06/28 00:33:11;;;;;;;3.95;1.70;;;;;;;;;;614931;23;1166;-75
2023/06/28 00:33:27;;;;;;;2.72;1.50;;;;;;;;;;614834;23;1266;-74
2023/06/28 00:33:42;;;;;;;2.88;1.42;;;;;;;;;;617216;23;1454;-74
2023/06/28 00:33:58;;;;;;;2.97;1.60;;;;;;;;;;619722;23;1350;-75
2023/06/28 00:34:13;;;;;;;3.15;1.63;;;;;;;;;;616508;23;1130;-74
2023/06/28 00:34:29;;;;;;;3.63;1.70;;;;;;;;;;622551;23;866;-74
2023/06/28 00:34:45;;;;;;;3.83;1.80;;;;;;;;;;622086;23;1236;-74
2023/06/28 00:35:01;;;;;;;5.78;1.70;;;;;;;;;;620188;23;1412;-74
2023/06/28 00:35:16;;;;;;;5.03;1.58;;;;;;;;;;614901;23;898;-74
2023/06/28 00:35:32;;;;;;;3.10;1.60;;;;;;;;;;620075;23;1096;-75
2023/06/28 00:35:49;;;;;;;4.40;1.70;;;;;;;;;;619884;23;1371;-74
2023/06/28 00:36:11;;;;;;;4.30;1.75;;;;;;;;;;619339;23;1466;-76
2023/06/28 00:36:26;;;;;;;4.00;1.70;;;;;;;;;;619675;23;1268;-75
2023/06/28 00:36:42;;;;;;;4.50;1.73;;;;;;;;;;621607;23;1108;-75
2023/06/28 00:36:57;;;;;;;4.20;1.60;;;;;;;;;;618960;23;1486;-74
2023/06/28 00:37:13;;;;;;;4.00;1.60;;;;;;;;;;613685;23;1363;-75
2023/06/28 00:37:29;;;;;;;3.83;1.50;;;;;;;;;;619321;23;1363;-74
2023/06/28 00:37:45;;;;;;;4.07;1.60;;;;;;;;;;620488;23;1018;-74
2023/06/28 00:38:00;;;;;;;4.68;1.80;;;;;;;;;;615380;23;828;-74
2023/06/28 00:38:17;;;;;;;4.00;1.63;;;;;;;;;;617287;23;907;-74
2023/06/28 00:38:34;;;;;;;3.65;1.60;;;;;;;;;;619837;23;1434;-74
2023/06/28 00:38:50;;;;;;;3.15;1.50;;;;;;;;;;620541;23;1480;-75
2023/06/28 00:39:15;;;;;;;2.63;1.40;;;;;;;;;;616715;23;1248;-75
2023/06/28 00:39:31;;;;;;;4.25;1.92;;;;;;;;;;625147;23;863;-74
2023/06/28 00:39:47;;;;;;;4.63;1.90;;;;;;;;;;621912;23;1165;-74
2023/06/28 00:40:07;;;;;;;4.10;1.70;;;;;;;;;;619517;23;1434;-74
2023/06/28 00:40:23;;;;;;;3.38;1.50;;;;;;;;;;612842;23;1260;-73
2023/06/28 00:40:39;;;;;;;3.72;1.60;;;;;;;;;;620107;23;1258;-74
2023/06/28 00:40:55;;;;;;;3.63;1.50;;;;;;;;;;616121;23;1139;-73
2023/06/28 00:41:17;;;;;;;4.05;1.52;;;;;;;;;;609724;23;1280;-73
2023/06/28 00:41:33;;;;;;;3.80;1.58;;;;;;;;;;613990;23;918;-74
2023/06/28 00:41:49;;;;;;;3.55;1.65;;;;;;;;;;619944;23;1299;-74
2023/06/28 00:42:06;;;;;;;4.15;1.60;;;;;;;;;;621368;23;851;-73
2023/06/28 00:42:22;;;;;;;4.15;1.70;;;;;;;;;;617605;23;1190;-74
2023/06/28 00:42:37;;;;;;;3.65;1.77;;;;;;;;;;619577;23;1439;-74
2023/06/28 00:42:56;;;;;;;3.33;1.60;;;;;;;;;;617177;23;1205;-74
2023/06/28 00:43:12;;;;;;;3.55;1.60;;;;;;;;;;613740;23;1549;-74
2023/06/28 00:43:28;;;;;;;3.30;1.70;;;;;;;;;;619524;23;1368;-74
2023/06/28 00:43:43;;;;;;;3.00;1.67;;;;;;;;;;614543;23;1352;-74
2023/06/28 00:43:59;;;;;;;3.10;1.60;;;;;;;;;;613547;23;1080;-73
2023/06/28 00:44:15;;;;;;;3.33;1.50;;;;;;;;;;607160;23;2057;-74
2023/06/28 00:44:31;;;;;;;4.63;1.63;;;;;;;;;;619452;23;1563;-74
2023/06/28 00:44:46;;;;;;;5.22;1.80;;;;;;;;;;615673;23;1377;-74
2023/06/28 00:45:14;;;;;;;4.97;1.90;;;;;;;;;;616585;23;855;-75
2023/06/28 00:45:29;;;;;;;4.50;1.70;;;;;;;;;;613600;23;1498;-74
2023/06/28 00:45:45;;;;;;;3.80;1.50;;;;;;;;;;616228;23;1388;-74
2023/06/28 00:46:00;;;;;;;3.75;1.60;;;;;;;;;;619425;23;847;-73
2023/06/28 00:46:16;;;;;;;4.37;1.63;;;;;;;;;;614619;23;1091;-74
2023/06/28 00:46:34;;;;;;;3.13;1.50;;;;;;;;;;618338;23;792;-74
2023/06/28 00:46:50;;;;;;;3.58;1.65;;;;;;;;;;619910;23;919;-74
2023/06/28 00:47:15;;;;;;;4.38;1.70;;;;;;;;;;617852;23;1379;-74
2023/06/28 00:47:51;;;;;;;4.20;1.80;;;;;;;;;;622608;23;1411;-73
2023/06/28 00:48:17;;;;;;;3.58;1.67;;;;;;;;;;620334;23;1201;-75
2023/06/28 00:48:33;;;;;;;4.57;1.80;;;;;;;;;;622846;23;1480;-75
2023/06/28 00:48:49;;;;;;;4.18;1.63;;;;;;;;;;622773;23;878;-74
2023/06/28 00:49:15;;;;;;;3.45;1.70;;;;;;;;;;618991;23;1312;-74
2023/06/28 00:49:36;;;;;;;5.22;1.88;;;;;;;;;;619226;23;935;-74
2023/06/28 00:49:58;;;;;;;5.40;1.60;;;;;;;;;;616092;23;1426;-75
2023/06/28 00:50:14;;;;;;;4.70;1.67;;;;;;;;;;612846;23;1370;-73
2023/06/28 00:50:31;;;;;;;4.40;1.70;;;;;;;;;;619237;23;1423;-74
2023/06/28 00:50:47;;;;;;;3.05;1.60;;;;;;;;;;620418;23;1237;-73
2023/06/28 00:51:04;;;;;;;4.10;1.70;;;;;;;;;;615932;23;1370;-74
2023/06/28 00:51:20;;;;;;;5.40;1.90;;;;;;;;;;612544;23;1235;-74
2023/06/28 00:51:36;;;;;;;7.03;1.90;;;;;;;;;;616738;23;884;-74
2023/06/28 00:51:51;;;;;;;7.50;2.00;;;;;;;;;;616209;23;1499;-74
2023/06/28 00:52:12;;;;;;;5.75;1.92;;;;;;;;;;613148;23;792;-75
2023/06/28 00:52:37;;;;;;;4.13;1.80;;;;;;;;;;618919;23;1415;-74
2023/06/28 00:52:56;;;;;;;3.85;1.70;;;;;;;;;;623140;23;1218;-74
2023/06/28 00:53:16;;;;;;;4.05;1.63;;;;;;;;;;621866;23;1473;-74
2023/06/28 00:53:32;;;;;;;4.18;1.58;;;;;;;;;;626721;23;1270;-73
2023/06/28 00:54:11;;;;;;;4.20;1.70;;;;;;;;;;623260;23;1153;-74
2023/06/28 00:54:27;;;;;;;4.30;1.80;;;;;;;;;;619676;23;1030;-74
2023/06/28 00:54:47;;;;;;;5.13;1.75;;;;;;;;;;617627;23;1264;-73
2023/06/28 00:55:12;;;;;;;3.72;1.80;;;;;;;;;;616583;23;876;-74
2023/06/28 00:55:28;;;;;;;4.65;1.70;;;;;;;;;;616320;23;1489;-74
2023/06/28 00:55:44;;;;;;;6.95;1.85;;;;;;;;;;618442;23;1000;-74
2023/06/28 00:56:03;;;;;;;6.95;2.10;;;;;;;;;;617129;23;1571;-73
2023/06/28 00:56:20;;;;;;;4.30;2.00;;;;;;;;;;613405;23;1376;-74
2023/06/28 00:56:37;;;;;;;3.42;1.70;;;;;;;;;;616487;23;1292;-74
2023/06/28 00:56:56;;;;;;;4.28;1.60;;;;;;;;;;616991;23;1135;-73
2023/06/28 00:57:12;;;;;;;4.40;1.75;;;;;;;;;;614983;23;1469;-74
2023/06/28 00:57:28;;;;;;;5.25;1.80;;;;;;;;;;619436;23;1193;-74
2023/06/28 00:57:47;;;;;;;4.80;1.70;;;;;;;;;;619976;23;1012;-74
2023/06/28 00:58:09;;;;;;;3.80;1.70;;;;;;;;;;621105;23;1141;-74
2023/06/28 00:58:26;;;;;;;4.20;1.77;;;;;;;;;;621378;23;1147;-75
2023/06/28 00:58:42;;;;;;;4.68;1.90;;;;;;;;;;622255;23;1458;-74
2023/06/28 00:58:58;;;;;;;4.50;1.98;;;;;;;;;;620308;23;883;-74
2023/06/28 00:59:17;;;;;;;4.82;2.00;;;;;;;;;;615828;23;1407;-75
2023/06/28 00:59:37;;;;;;;4.95;1.90;;;;;;;;;;617292;23;1433;-74
2023/06/28 00:59:57;;;;;;;4.40;1.80;;;;;;;;;;616171;23;1332;-74
2023/06/28 01:00:14;;;;;;;4.82;1.80;;;;;;;;;;613319;23;1591;-74
2023/06/28 01:00:30;;;;;;;4.05;1.70;;;;;;;;;;623088;23;1659;-74
2023/06/28 01:01:31;;;;;;;4.30;1.80;;;;;;;;;;617553;23;1249;-73
2023/06/28 01:01:51;;;;;;;4.47;1.60;;;;;;;;;;612381;23;1167;-75
2023/06/28 01:02:12;;;;;;;6.00;1.70;;;;;;;;;;613183;23;900;-75
2023/06/28 01:02:30;;;;;;;6.13;1.98;;;;;;;;;;621531;23;1482;-74
2023/06/28 01:02:46;;;;;;;5.50;1.92;;;;;;;;;;628147;23;1522;-74
2023/06/28 01:03:09;;;;;;;4.82;1.88;;;;;;;;;;627140;23;1307;-75
2023/06/28 01:03:36;;;;;;;3.97;1.95;;;;;;;;;;624318;23;1285;-75
2023/06/28 01:03:53;;;;;;;4.38;1.70;;;;;;;;;;622754;23;926;-75
2023/06/28 01:04:13;;;;;;;5.45;1.95;;;;;;;;;;617140;23;1967;-74
2023/06/28 01:04:29;;;;;;;5.88;2.00;;;;;;;;;;622886;23;1327;-74
2023/06/28 01:04:57;;;;;;;5.20;1.98;;;;;;;;;;622325;23;1307;-74
2023/06/28 01:05:20;;;;;;;4.38;1.77;;;;;;;;;;614622;23;899;-75
2023/06/28 01:05:37;;;;;;;4.10;1.92;;;;;;;;;;619208;23;1222;-75
2023/06/28 01:05:58;;;;;;;4.53;2.00;;;;;;;;;;617323;23;1032;-74
2023/06/28 01:06:15;;;;;;;4.72;1.80;;;;;;;;;;612822;23;2015;-74
2023/06/28 01:06:38;;;;;;;4.40;1.80;;;;;;;;;;620020;23;1542;-75
2023/06/28 01:06:59;;;;;;;2.95;1.80;;;;;;;;;;619831;23;1238;-74
2023/06/28 01:07:19;;;;;;;4.15;1.92;;;;;;;;;;616733;23;1092;-73
2023/06/28 01:07:38;;;;;;;4.40;1.98;;;;;;;;;;622364;23;1324;-76
2023/06/28 01:08:14;;;;;;;4.50;1.85;;;;;;;;;;622377;23;1160;-75
2023/06/28 01:08:30;;;;;;;5.70;1.98;;;;;;;;;;624434;23;1545;-75
2023/06/28 01:08:54;;;;;;;4.95;1.80;;;;;;;;;;625775;23;1423;-74
2023/06/28 01:09:24;;;;;;;4.05;2.00;;;;;;;;;;622063;23;1637;-74
2023/06/28 01:09:40;;;;;;;4.45;1.80;;;;;;;;;;626072;23;1137;-75
2023/06/28 01:10:19;;;;;;;4.28;1.80;;;;;;;;;;621827;23;1355;-74
2023/06/28 01:10:43;;;;;;;3.58;1.70;;;;;;;;;;606001;24;1196;-75
2023/06/28 01:11:12;;;;;;;4.45;1.77;;;;;;;;;;619879;23;1445;-74
2023/06/28 01:11:36;;;;;;;4.70;1.70;;;;;;;;;;617553;23;1364;-75
2023/06/28 01:11:54;;;;;;;3.72;1.70;;;;;;;;;;618701;23;1368;-74
2023/06/28 01:12:19;;;;;;;4.20;1.60;;;;;;;;;;615431;23;1240;-75
2023/06/28 01:12:46;;;;;;;4.43;1.60;;;;;;;;;;618204;23;1249;-74
2023/06/28 01:13:05;;;;;;;3.53;1.95;;;;;;;;;;622289;23;1297;-74
2023/06/28 01:13:25;;;;;;;5.38;2.00;;;;;;;;;;618083;23;1293;-73
2023/06/28 01:13:41;;;;;;;5.43;1.83;;;;;;;;;;620627;23;1130;-74
2023/06/28 01:13:58;;;;;;;3.22;1.77;;;;;;;;;;623033;23;960;-73
2023/06/28 01:14:18;;;;;;;4.70;1.92;;;;;;;;;;614074;23;1446;-73
2023/06/28 01:14:35;;;;;;;3.83;1.70;;;;;;;;;;615747;23;1541;-74
2023/06/28 01:14:51;;;;;;;3.90;1.70;;;;;;;;;;614973;23;1443;-74
2023/06/28 01:15:08;;;;;;;5.45;1.77;;;;;;;;;;614040;23;1436;-74
2023/06/28 01:15:24;;;;;;;5.95;1.90;;;;;;;;;;618389;23;1147;-74
2023/06/28 01:15:40;;;;;;;4.55;1.85;;;;;;;;;;622236;23;836;-74
2023/06/28 01:16:01;;;;;;;4.40;1.85;;;;;;;;;;619822;23;1442;-73
2023/06/28 01:16:25;;;;;;;4.50;1.90;;;;;;;;;;612844;23;1523;-74
2023/06/28 01:16:41;;;;;;;4.90;1.77;;;;;;;;;;618063;23;1462;-74
2023/06/28 01:17:11;;;;;;;4.63;1.75;;;;;;;;;;618219;23;1334;-74
2023/06/28 01:17:30;;;;;;;4.00;1.50;;;;;;;;;;615437;23;1194;-74
2023/06/28 01:17:47;;;;;;;3.63;1.80;;;;;;;;;;614930;23;1257;-74
2023/06/28 01:18:26;;;;;;;4.07;1.83;;;;;;;;;;616005;23;848;-74
2023/06/28 01:18:42;;;;;;;4.57;1.80;;;;;;;;;;619617;23;1400;-75
2023/06/28 01:18:59;;;;;;;5.47;1.75;;;;;;;;;;620092;23;1340;-74
2023/06/28 01:19:15;;;;;;;5.63;1.80;;;;;;;;;;618501;23;868;-75
2023/06/28 01:19:31;;;;;;;4.55;1.90;;;;;;;;;;622803;23;839;-75
2023/06/28 01:19:56;;;;;;;4.13;1.75;;;;;;;;;;623473;23;1435;-75
2023/06/28 01:20:15;;;;;;;3.83;1.75;;;;;;;;;;616461;23;1179;-74
2023/06/28 01:20:31;;;;;;;4.03;1.75;;;;;;;;;;616766;23;1479;-75
2023/06/28 01:20:49;;;;;;;3.58;1.70;;;;;;;;;;619843;23;1027;-74
2023/06/28 01:21:19;;;;;;;3.75;1.85;;;;;;;;;;617361;23;1419;-75
2023/06/28 01:21:41;;;;;;;4.13;1.80;;;;;;;;;;618555;23;1407;-74
2023/06/28 01:22:01;;;;;;;5.35;1.80;;;;;;;;;;622487;23;1089;-75
2023/06/28 01:22:17;;;;;;;3.90;1.75;;;;;;;;;;615574;23;1292;-75
2023/06/28 01:22:34;;;;;;;4.85;1.80;;;;;;;;;;623145;23;884;-75
2023/06/28 01:22:56;;;;;;;5.60;1.90;;;;;;;;;;624987;23;1139;-75
2023/06/28 01:23:16;;;;;;;6.07;1.70;;;;;;;;;;617416;23;1530;-75
2023/06/28 01:23:31;;;;;;;5.18;1.70;;;;;;;;;;619366;23;1355;-73
2023/06/28 01:23:48;;;;;;;4.63;1.83;;;;;;;;;;620778;23;827;-74
2023/06/28 01:24:10;;;;;;;4.25;1.85;;;;;;;;;;618911;23;1392;-74
2023/06/28 01:24:27;;;;;;;4.95;1.92;;;;;;;;;;621674;23;1185;-74
2023/06/28 01:24:46;;;;;;;5.13;1.88;;;;;;;;;;623087;23;856;-75
2023/06/28 01:25:02;;;;;;;4.43;1.60;;;;;;;;;;622804;23;1257;-75
2023/06/28 01:25:18;;;;;;;4.00;1.67;;;;;;;;;;618882;23;824;-74
2023/06/28 01:25:34;;;;;;;3.75;1.77;;;;;;;;;;621840;23;1258;-74
2023/06/28 01:25:53;;;;;;;3.45;1.73;;;;;;;;;;619445;23;1460;-74
2023/06/28 01:26:15;;;;;;;3.63;1.80;;;;;;;;;;616427;23;1304;-74
2023/06/28 01:26:33;;;;;;;4.28;1.80;;;;;;;;;;616520;23;1130;-73
2023/06/28 01:26:51;;;;;;;4.53;1.73;;;;;;;;;;617514;23;991;-74
2023/06/28 01:27:17;;;;;;;4.30;1.75;;;;;;;;;;620781;23;1326;-73
2023/06/28 01:27:33;;;;;;;3.40;1.70;;;;;;;;;;625475;23;979;-72
2023/06/28 01:27:51;;;;;;;4.40;1.95;;;;;;;;;;622272;23;1201;-74
2023/06/28 01:28:16;;;;;;;4.25;1.90;;;;;;;;;;618276;23;1276;-73
2023/06/28 01:28:35;;;;;;;4.10;1.70;;;;;;;;;;621148;23;1380;-74
2023/06/28 01:28:51;;;;;;;4.07;1.60;;;;;;;;;;619562;23;1271;-74
2023/06/28 01:29:21;;;;;;;3.83;1.60;;;;;;;;;;620492;23;844;-74
2023/06/28 01:29:38;;;;;;;3.88;1.73;;;;;;;;;;620146;23;1167;-73
2023/06/28 01:29:56;;;;;;;3.58;1.70;;;;;;;;;;619797;23;1189;-74
2023/06/28 01:30:23;;;;;;;4.38;1.90;;;;;;;;;;616937;23;1264;-74
2023/06/28 01:30:39;;;;;;;3.95;1.75;;;;;;;;;;622886;23;1330;-74
2023/06/28 01:30:57;;;;;;;3.95;1.70;;;;;;;;;;624708;23;1385;-74
2023/06/28 01:31:40;;;;;;;4.63;1.70;;;;;;;;;;620182;23;1265;-73
2023/06/28 01:31:56;;;;;;;5.53;1.73;;;;;;;;;;610378;24;1500;-74
2023/06/28 01:32:14;;;;;;;6.30;1.70;;;;;;;;;;613348;23;1412;-74
2023/06/28 01:32:36;;;;;;;4.07;1.70;;;;;;;;;;617936;23;1383;-73
2023/06/28 01:32:55;;;;;;;4.68;1.70;;;;;;;;;;617225;23;1538;-73
2023/06/28 01:33:11;;;;;;;4.43;1.70;;;;;;;;;;615010;23;1332;-74
2023/06/28 01:33:30;;;;;;;3.60;1.67;;;;;;;;;;616520;23;1078;-74
2023/06/28 01:33:49;;;;;;;3.10;1.70;;;;;;;;;;619115;23;1190;-74
2023/06/28 01:34:27;;;;;;;3.08;1.73;;;;;;;;;;621685;23;1331;-74
2023/06/28 01:34:43;;;;;;;4.10;1.83;;;;;;;;;;622674;23;1486;-73
2023/06/28 01:35:10;;;;;;;4.57;1.75;;;;;;;;;;621042;23;1252;-75
2023/06/28 01:35:30;;;;;;;3.22;1.60;;;;;;;;;;613181;23;1056;-74
2023/06/28 01:35:52;;;;;;;4.60;1.70;;;;;;;;;;619670;23;1123;-73
2023/06/28 01:36:09;;;;;;;4.63;1.77;;;;;;;;;;614640;23;1221;-74
2023/06/28 01:36:26;;;;;;;4.10;1.90;;;;;;;;;;612786;23;1291;-74
2023/06/28 01:36:44;;;;;;;4.28;1.90;;;;;;;;;;616864;23;852;-74
2023/06/28 01:37:04;;;;;;;4.68;1.80;;;;;;;;;;620224;23;1419;-73
2023/06/28 01:37:22;;;;;;;4.20;1.58;;;;;;;;;;616085;23;1084;-73
2023/06/28 01:37:39;;;;;;;4.20;1.65;;;;;;;;;;617559;23;1297;-75
2023/06/28 01:37:58;;;;;;;5.00;1.80;;;;;;;;;;615966;23;1415;-74
2023/06/28 01:38:18;;;;;;;3.53;1.50;;;;;;;;;;616924;23;1256;-70
2023/06/28 01:38:38;;;;;;;3.10;1.60;;;;;;;;;;621613;23;1486;-74
2023/06/28 01:38:56;;;;;;;3.97;1.60;;;;;;;;;;616004;23;1292;-74
2023/06/28 01:39:19;;;;;;;3.60;1.50;;;;;;;;;;618396;23;1443;-74
2023/06/28 01:39:45;;;;;;;6.10;1.70;;;;;;;;;;616452;23;1225;-73
2023/06/28 01:40:28;;;;;;;4.43;1.80;;;;;;;;;;617804;23;1193;-75
2023/06/28 01:40:48;;;;;;;3.45;1.60;;;;;;;;;;614943;23;1139;-75
2023/06/28 01:42:16;;;;;;;4.22;1.60;;;;;;;;;;613162;23;1250;-74
2023/06/28 01:42:34;;;;;;;4.85;1.75;;;;;;;;;;616528;23;1256;-75
2023/06/28 01:42:50;;;;;;;4.38;1.80;;;;;;;;;;616869;23;1500;-75
2023/06/28 01:43:10;;;;;;;4.63;1.80;;;;;;;;;;620879;23;1284;-75
2023/06/28 01:43:25;;;;;;;4.30;1.63;;;;;;;;;;622466;23;1426;-73
2023/06/28 01:43:42;;;;;;;3.90;1.60;;;;;;;;;;619784;23;1327;-73
2023/06/28 01:44:18;;;;;;;3.50;1.70;;;;;;;;;;617019;23;1428;-73
2023/06/28 01:44:33;;;;;;;3.75;1.70;;;;;;;;;;613754;23;1160;-71
2023/06/28 01:44:52;;;;;;;3.87;1.70;;;;;;;;;;616196;23;939;-73
2023/06/28 01:45:12;;;;;;;6.00;1.80;;;;;;;;;;613674;23;1316;-74
2023/06/28 01:45:28;;;;;;;6.68;1.90;;;;;;;;;;617094;23;1423;-73
2023/06/28 01:45:44;;;;;;;5.32;1.80;;;;;;;;;;619532;23;867;-75
2023/06/28 01:46:13;;;;;;;;;;;;;;;;;;;;;
2023/06/28 01:46:30;;;;;;;3.08;1.58;;;;;;;;;;621338;23;747;-73
2023/06/28 01:46:47;;;;;;;3.40;1.60;;;;;;;;;;619371;23;1098;-73
2023/06/28 01:47:15;;;;;;;3.83;1.75;;;;;;;;;;620385;23;1285;-74
2023/06/28 01:47:31;;;;;;;2.83;1.60;;;;;;;;;;622442;23;1309;-74
2023/06/28 01:47:50;;;;;;;3.20;1.80;;;;;;;;;;623178;23;792;-74
2023/06/28 01:48:12;;;;;;;4.53;1.88;;;;;;;;;;620046;23;1417;-74
2023/06/28 01:48:28;;;;;;;3.97;1.83;;;;;;;;;;622324;23;1114;-74
2023/06/28 01:48:51;;;;;;;4.38;1.73;;;;;;;;;;618944;23;1467;-74
2023/06/28 01:49:20;;;;;;;4.30;1.80;;;;;;;;;;620359;23;1452;-75
2023/06/28 01:49:38;;;;;;;3.63;1.60;;;;;;;;;;625142;23;1356;-73
2023/06/28 01:49:54;;;;;;;3.53;1.50;;;;;;;;;;622616;23;1324;-73
2023/06/28 01:50:10;;;;;;;4.68;1.67;;;;;;;;;;616309;23;1185;-73
2023/06/28 01:50:32;;;;;;;4.75;1.70;;;;;;;;;;622732;23;1237;-74
2023/06/28 01:50:48;;;;;;;4.03;1.80;;;;;;;;;;622683;23;848;-73
2023/06/28 01:51:10;;;;;;;4.18;1.90;;;;;;;;;;618897;23;1296;-73
2023/06/28 01:51:26;;;;;;;5.65;1.60;;;;;;;;;;616919;23;1410;-72
2023/06/28 01:51:45;;;;;;;3.87;1.50;;;;;;;;;;619679;23;1034;-73
2023/06/28 01:52:01;;;;;;;3.88;1.50;;;;;;;;;;616645;23;1313;-73
2023/06/28 01:52:17;;;;;;;4.55;1.50;;;;;;;;;;611066;23;1262;-72
2023/06/28 01:52:33;;;;;;;4.15;1.58;;;;;;;;;;616842;23;1474;-73
2023/06/28 01:52:54;;;;;;;3.80;1.70;;;;;;;;;;616682;23;1414;-73
2023/06/28 01:53:17;;;;;;;3.72;1.70;;;;;;;;;;612910;23;1269;-73
2023/06/28 01:53:33;;;;;;;3.33;1.60;;;;;;;;;;618760;23;1097;-73
2023/06/28 01:53:51;;;;;;;4.70;1.60;;;;;;;;;;619552;23;1569;-73
2023/06/28 01:54:11;;;;;;;5.00;1.60;;;;;;;;;;616893;23;1395;-74
2023/06/28 01:54:28;;;;;;;5.95;1.80;;;;;;;;;;621046;23;847;-72
2023/06/28 01:54:44;;;;;;;5.47;1.85;;;;;;;;;;620164;23;1463;-73
2023/06/28 01:55:11;;;;;;;5.10;1.90;;;;;;;;;;621801;23;844;-74
2023/06/28 01:55:47;;;;;;;4.60;2.00;;;;;;;;;;620276;23;1252;-73
2023/06/28 01:56:10;;;;;;;3.95;1.80;;;;;;;;;;620851;23;1328;-74
2023/06/28 01:56:31;;;;;;;4.07;1.80;;;;;;;;;;619445;23;1406;-73
2023/06/28 01:56:47;;;;;;;4.03;1.70;;;;;;;;;;619031;23;1240;-74
2023/06/28 01:57:13;;;;;;;3.53;1.80;;;;;;;;;;618522;23;812;-74
2023/06/28 01:57:52;;;;;;;4.82;1.73;;;;;;;;;;622180;23;1261;-75
2023/06/28 01:58:11;;;;;;;4.10;1.80;;;;;;;;;;619957;23;1434;-73
2023/06/28 01:58:27;;;;;;;4.32;1.90;;;;;;;;;;622855;23;911;-74
2023/06/28 01:58:46;;;;;;;4.85;2.00;;;;;;;;;;621427;23;1593;-73
2023/06/28 01:59:11;;;;;;;5.43;1.80;;;;;;;;;;622319;23;879;-75
2023/06/28 01:59:30;;;;;;;3.70;1.70;;;;;;;;;;623679;23;1470;-73
2023/06/28 01:59:49;;;;;;;3.70;1.75;;;;;;;;;;625358;23;1259;-74